Terminal Aerodrome Forecast
Issued by NWS Jackson, KY

Home | Current Version | Previous Version | Text Only | Print | Product List | Glossary On
Versions: 1 2 3 4 5 6 7 8 9 10 11 12 13 14 15 16 17 18 19 20 21
000
FTUS43 KJKL 250300 AAA
TAFLOZ
TAF AMD
KLOZ 250357Z 2504/2524 00000KT 5SM BR SKC
     FM251000 00000KT 1/4SM FG VV001
     FM251500 06005KT P6SM FEW020=

USA.gov is the U.S. government's official web portal to all federal, state and local government web resources and services.